sensor_id;sensor_type;location;lat;lon;timestamp;temperature;humidity
1880;DHT22;49285;49.002;8.390;2023-09-19T00:01:42;19.70;99.90
1880;DHT22;49285;49.002;8.390;2023-09-19T00:04:14;19.60;99.90
1880;DHT22;49285;49.002;8.390;2023-09-19T00:06:40;19.60;99.90
1880;DHT22;49285;49.002;8.390;2023-09-19T00:09:06;19.60;99.90
1880;DHT22;49285;49.002;8.390;2023-09-19T00:11:36;19.50;99.90
1880;DHT22;49285;49.002;8.390;2023-09-19T00:14:02;19.40;99.90
1880;DHT22;49285;49.002;8.390;2023-09-19T00:16:28;19.40;99.90
1880;DHT22;49285;49.002;8.390;2023-09-19T00:18:54;19.50;99.90
1880;DHT22;49285;49.002;8.390;2023-09-19T00:21:20;19.50;99.90
1880;DHT22;49285;49.002;8.390;2023-09-19T00:23:46;19.50;99.90
1880;DHT22;49285;49.002;8.390;2023-09-19T00:26:11;19.50;99.90
1880;DHT22;49285;49.002;8.390;2023-09-19T00:28:38;19.40;99.90
1880;DHT22;49285;49.002;8.390;2023-09-19T00:31:07;19.40;99.90
1880;DHT22;49285;49.002;8.390;2023-09-19T00:33:34;19.50;99.90
1880;DHT22;49285;49.002;8.390;2023-09-19T00:35:59;19.50;99.90
1880;DHT22;49285;49.002;8.390;2023-09-19T00:38:27;19.50;99.90
1880;DHT22;49285;49.002;8.390;2023-09-19T00:40:54;19.40;99.90
1880;DHT22;49285;49.002;8.390;2023-09-19T00:43:20;19.40;99.90
1880;DHT22;49285;49.002;8.390;2023-09-19T00:45:51;19.40;99.90
1880;DHT22;49285;49.002;8.390;2023-09-19T00:48:17;19.50;99.90
1880;DHT22;49285;49.002;8.390;2023-09-19T00:50:45;19.50;99.90
1880;DHT22;49285;49.002;8.390;2023-09-19T00:53:14;19.40;99.90
1880;DHT22;49285;49.002;8.390;2023-09-19T00:55:41;19.40;99.90
1880;DHT22;49285;49.002;8.390;2023-09-19T00:58:08;19.40;99.90
1880;DHT22;49285;49.002;8.390;2023-09-19T01:00:36;19.50;99.90
1880;DHT22;49285;49.002;8.390;2023-09-19T01:03:02;19.50;99.90
1880;DHT22;49285;49.002;8.390;2023-09-19T01:05:28;19.50;99.90
1880;DHT22;49285;49.002;8.390;2023-09-19T01:07:54;19.50;99.90
1880;DHT22;49285;49.002;8.390;2023-09-19T01:10:21;19.40;99.90
1880;DHT22;49285;49.002;8.390;2023-09-19T01:13:19;19.50;99.90
1880;DHT22;49285;49.002;8.390;2023-09-19T01:18:43;19.60;99.90
1880;DHT22;49285;49.002;8.390;2023-09-19T01:27:06;19.70;99.90
1880;DHT22;49285;49.002;8.390;2023-09-19T01:29:44;19.70;99.90
1880;DHT22;49285;49.002;8.390;2023-09-19T01:32:11;19.60;99.90
1880;DHT22;49285;49.002;8.390;2023-09-19T01:37:10;19.70;99.90
1880;DHT22;49285;49.002;8.390;2023-09-19T01:39:36;19.70;99.90
1880;DHT22;49285;49.002;8.390;2023-09-19T01:50:29;19.50;99.90
1880;DHT22;49285;49.002;8.390;2023-09-19T01:53:04;19.50;99.90
1880;DHT22;49285;49.002;8.390;2023-09-19T01:55:41;19.50;99.90
1880;DHT22;49285;49.002;8.390;2023-09-19T02:00:51;19.60;99.90
1880;DHT22;49285;49.002;8.390;2023-09-19T02:03:18;19.60;99.90
1880;DHT22;49285;49.002;8.390;2023-09-19T02:05:52;19.70;99.90
1880;DHT22;49285;49.002;8.390;2023-09-19T02:08:19;19.60;99.90
1880;DHT22;49285;49.002;8.390;2023-09-19T02:10:45;19.60;99.90
1880;DHT22;49285;49.002;8.390;2023-09-19T02:13:18;19.70;99.90
1880;DHT22;49285;49.002;8.390;2023-09-19T02:15:44;19.60;99.90
1880;DHT22;49285;49.002;8.390;2023-09-19T02:18:11;19.60;99.90
1880;DHT22;49285;49.002;8.390;2023-09-19T02:20:42;19.50;99.90
1880;DHT22;49285;49.002;8.390;2023-09-19T02:23:09;19.50;99.90
1880;DHT22;49285;49.002;8.390;2023-09-19T02:25:35;19.50;99.90
1880;DHT22;49285;49.002;8.390;2023-09-19T02:28:01;19.70;99.90
1880;DHT22;49285;49.002;8.390;2023-09-19T02:30:29;19.70;99.90
1880;DHT22;49285;49.002;8.390;2023-09-19T02:32:55;19.70;99.90
1880;DHT22;49285;49.002;8.390;2023-09-19T02:35:22;19.60;99.90
1880;DHT22;49285;49.002;8.390;2023-09-19T02:37:48;19.60;99.90
1880;DHT22;49285;49.002;8.390;2023-09-19T02:40:15;19.60;99.90
1880;DHT22;49285;49.002;8.390;2023-09-19T02:42:54;19.70;99.90
1880;DHT22;49285;49.002;8.390;2023-09-19T02:45:20;19.70;99.90
1880;DHT22;49285;49.002;8.390;2023-09-19T02:47:46;19.60;99.90
1880;DHT22;49285;49.002;8.390;2023-09-19T02:50:12;19.60;99.90
1880;DHT22;49285;49.002;8.390;2023-09-19T02:52:41;19.50;99.90
1880;DHT22;49285;49.002;8.390;2023-09-19T02:55:09;19.60;99.90
1880;DHT22;49285;49.002;8.390;2023-09-19T02:57:36;19.50;99.90
1880;DHT22;49285;49.002;8.390;2023-09-19T03:00:07;19.50;99.90
1880;DHT22;49285;49.002;8.390;2023-09-19T03:02:33;19.50;99.90
1880;DHT22;49285;49.002;8.390;2023-09-19T03:05:00;19.50;99.90
1880;DHT22;49285;49.002;8.390;2023-09-19T03:07:26;19.50;99.90
1880;DHT22;49285;49.002;8.390;2023-09-19T03:09:51;19.40;99.90
1880;DHT22;49285;49.002;8.390;2023-09-19T03:12:18;19.50;99.90
1880;DHT22;49285;49.002;8.390;2023-09-19T03:14:44;19.50;99.90
1880;DHT22;49285;49.002;8.390;2023-09-19T03:17:09;19.40;99.90
1880;DHT22;49285;49.002;8.390;2023-09-19T03:19:35;19.40;99.90
1880;DHT22;49285;49.002;8.390;2023-09-19T03:22:03;19.40;99.90
1880;DHT22;49285;49.002;8.390;2023-09-19T03:24:28;19.40;99.90
1880;DHT22;49285;49.002;8.390;2023-09-19T03:26:54;19.30;99.90
1880;DHT22;49285;49.002;8.390;2023-09-19T03:29:20;19.30;99.90
1880;DHT22;49285;49.002;8.390;2023-09-19T03:31:46;19.20;99.90
1880;DHT22;49285;49.002;8.390;2023-09-19T03:34:11;19.30;99.90
1880;DHT22;49285;49.002;8.390;2023-09-19T03:36:37;19.40;99.90
1880;DHT22;49285;49.002;8.390;2023-09-19T03:39:03;19.40;99.90
1880;DHT22;49285;49.002;8.390;2023-09-19T03:41:31;19.30;99.90
1880;DHT22;49285;49.002;8.390;2023-09-19T03:43:56;19.30;99.90
1880;DHT22;49285;49.002;8.390;2023-09-19T03:46:22;19.30;99.90
1880;DHT22;49285;49.002;8.390;2023-09-19T03:48:48;19.30;99.90
1880;DHT22;49285;49.002;8.390;2023-09-19T03:51:13;19.20;99.90
1880;DHT22;49285;49.002;8.390;2023-09-19T03:53:39;19.30;99.90
1880;DHT22;49285;49.002;8.390;2023-09-19T03:56:04;19.30;99.90
1880;DHT22;49285;49.002;8.390;2023-09-19T03:58:30;19.20;99.90
1880;DHT22;49285;49.002;8.390;2023-09-19T04:00:56;19.20;99.90
1880;DHT22;49285;49.002;8.390;2023-09-19T04:03:23;19.20;99.90
1880;DHT22;49285;49.002;8.390;2023-09-19T04:05:50;19.30;99.90
1880;DHT22;49285;49.002;8.390;2023-09-19T04:08:15;19.30;99.90
1880;DHT22;49285;49.002;8.390;2023-09-19T04:10:42;19.30;99.90
1880;DHT22;49285;49.002;8.390;2023-09-19T04:13:09;19.30;99.90
1880;DHT22;49285;49.002;8.390;2023-09-19T04:15:34;19.30;99.90
1880;DHT22;49285;49.002;8.390;2023-09-19T04:18:00;19.30;99.90
1880;DHT22;49285;49.002;8.390;2023-09-19T04:20:25;19.30;99.90
1880;DHT22;49285;49.002;8.390;2023-09-19T04:22:51;19.30;99.90
1880;DHT22;49285;49.002;8.390;2023-09-19T04:25:17;19.20;99.90
1880;DHT22;49285;49.002;8.390;2023-09-19T04:27:44;19.20;99.90
1880;DHT22;49285;49.002;8.390;2023-09-19T04:30:10;19.20;99.90
1880;DHT22;49285;49.002;8.390;2023-09-19T04:32:37;19.20;99.90
1880;DHT22;49285;49.002;8.390;2023-09-19T04:35:10;19.30;99.90
1880;DHT22;49285;49.002;8.390;2023-09-19T04:37:39;19.20;99.90
1880;DHT22;49285;49.002;8.390;2023-09-19T04:40:09;19.20;99.90
1880;DHT22;49285;49.002;8.390;2023-09-19T04:42:40;19.20;99.90
1880;DHT22;49285;49.002;8.390;2023-09-19T04:45:06;19.20;99.90
1880;DHT22;49285;49.002;8.390;2023-09-19T04:47:32;19.20;99.90
1880;DHT22;49285;49.002;8.390;2023-09-19T04:49:58;19.30;99.90
1880;DHT22;49285;49.002;8.390;2023-09-19T04:52:24;19.20;99.90
1880;DHT22;49285;49.002;8.390;2023-09-19T04:54:50;19.20;99.90
1880;DHT22;49285;49.002;8.390;2023-09-19T04:57:15;19.20;99.90
1880;DHT22;49285;49.002;8.390;2023-09-19T04:59:41;19.20;99.90
1880;DHT22;49285;49.002;8.390;2023-09-19T05:02:07;19.20;99.90
1880;DHT22;49285;49.002;8.390;2023-09-19T05:04:35;19.10;99.90
1880;DHT22;49285;49.002;8.390;2023-09-19T05:07:01;19.10;99.90
1880;DHT22;49285;49.002;8.390;2023-09-19T05:09:28;19.20;99.90
1880;DHT22;49285;49.002;8.390;2023-09-19T05:11:54;19.10;99.90
1880;DHT22;49285;49.002;8.390;2023-09-19T05:14:20;19.20;99.90
1880;DHT22;49285;49.002;8.390;2023-09-19T05:16:46;19.20;99.90
1880;DHT22;49285;49.002;8.390;2023-09-19T05:19:12;19.20;99.90
1880;DHT22;49285;49.002;8.390;2023-09-19T05:21:38;19.20;99.90
1880;DHT22;49285;49.002;8.390;2023-09-19T05:24:05;19.20;99.90
1880;DHT22;49285;49.002;8.390;2023-09-19T05:26:33;19.10;99.90
1880;DHT22;49285;49.002;8.390;2023-09-19T05:28:59;19.10;99.90
1880;DHT22;49285;49.002;8.390;2023-09-19T05:31:26;19.10;99.90
1880;DHT22;49285;49.002;8.390;2023-09-19T05:33:53;19.10;99.90
1880;DHT22;49285;49.002;8.390;2023-09-19T05:36:20;19.10;99.90
1880;DHT22;49285;49.002;8.390;2023-09-19T05:38:46;19.10;99.90
1880;DHT22;49285;49.002;8.390;2023-09-19T05:41:15;19.00;99.90
1880;DHT22;49285;49.002;8.390;2023-09-19T05:43:41;19.00;99.90
1880;DHT22;49285;49.002;8.390;2023-09-19T05:46:07;19.10;99.90
1880;DHT22;49285;49.002;8.390;2023-09-19T05:48:33;19.10;99.90
1880;DHT22;49285;49.002;8.390;2023-09-19T05:50:59;19.10;99.90
1880;DHT22;49285;49.002;8.390;2023-09-19T05:53:27;19.00;99.90
1880;DHT22;49285;49.002;8.390;2023-09-19T05:55:52;19.00;99.90
1880;DHT22;49285;49.002;8.390;2023-09-19T05:58:19;19.00;99.90
1880;DHT22;49285;49.002;8.390;2023-09-19T06:00:45;18.90;99.90
1880;DHT22;49285;49.002;8.390;2023-09-19T06:03:14;18.90;99.90
1880;DHT22;49285;49.002;8.390;2023-09-19T06:05:40;18.80;99.90
1880;DHT22;49285;49.002;8.390;2023-09-19T06:08:07;18.90;99.90
1880;DHT22;49285;49.002;8.390;2023-09-19T06:10:34;18.90;99.90
1880;DHT22;49285;49.002;8.390;2023-09-19T06:13:03;18.90;99.90
1880;DHT22;49285;49.002;8.390;2023-09-19T06:15:31;18.80;99.90
1880;DHT22;49285;49.002;8.390;2023-09-19T06:17:59;18.90;99.90
1880;DHT22;49285;49.002;8.390;2023-09-19T06:20:25;18.90;99.90
1880;DHT22;49285;49.002;8.390;2023-09-19T06:22:52;18.80;99.90
1880;DHT22;49285;49.002;8.390;2023-09-19T06:25:18;18.90;99.90
1880;DHT22;49285;49.002;8.390;2023-09-19T06:27:52;18.90;99.90
1880;DHT22;49285;49.002;8.390;2023-09-19T06:30:19;18.90;99.90
1880;DHT22;49285;49.002;8.390;2023-09-19T06:32:45;18.90;99.90
1880;DHT22;49285;49.002;8.390;2023-09-19T06:35:15;19.00;99.90
1880;DHT22;49285;49.002;8.390;2023-09-19T06:37:41;19.00;99.90
1880;DHT22;49285;49.002;8.390;2023-09-19T06:40:11;19.00;99.90
1880;DHT22;49285;49.002;8.390;2023-09-19T06:42:44;18.90;99.90
1880;DHT22;49285;49.002;8.390;2023-09-19T06:45:11;19.00;99.90
1880;DHT22;49285;49.002;8.390;2023-09-19T06:47:39;19.00;99.90
1880;DHT22;49285;49.002;8.390;2023-09-19T06:50:05;19.00;99.90
1880;DHT22;49285;49.002;8.390;2023-09-19T06:52:32;19.10;99.90
1880;DHT22;49285;49.002;8.390;2023-09-19T06:54:58;18.90;99.90
1880;DHT22;49285;49.002;8.390;2023-09-19T06:57:24;18.90;99.90
1880;DHT22;49285;49.002;8.390;2023-09-19T06:59:50;18.90;99.90
1880;DHT22;49285;49.002;8.390;2023-09-19T07:02:15;18.90;99.90
1880;DHT22;49285;49.002;8.390;2023-09-19T07:04:41;18.80;99.90
1880;DHT22;49285;49.002;8.390;2023-09-19T07:07:07;18.80;99.90
1880;DHT22;49285;49.002;8.390;2023-09-19T07:09:34;18.80;99.90
1880;DHT22;49285;49.002;8.390;2023-09-19T07:12:00;18.80;99.90
1880;DHT22;49285;49.002;8.390;2023-09-19T07:14:26;18.80;99.90
1880;DHT22;49285;49.002;8.390;2023-09-19T07:16:52;18.80;99.90
1880;DHT22;49285;49.002;8.390;2023-09-19T07:19:18;18.80;99.90
1880;DHT22;49285;49.002;8.390;2023-09-19T07:21:43;18.80;99.90
1880;DHT22;49285;49.002;8.390;2023-09-19T07:24:09;18.70;99.90
1880;DHT22;49285;49.002;8.390;2023-09-19T07:26:34;18.70;99.90
1880;DHT22;49285;49.002;8.390;2023-09-19T07:29:00;18.70;99.90
1880;DHT22;49285;49.002;8.390;2023-09-19T07:31:29;18.80;99.90
1880;DHT22;49285;49.002;8.390;2023-09-19T07:33:55;18.80;99.90
1880;DHT22;49285;49.002;8.390;2023-09-19T07:36:20;18.80;99.90
1880;DHT22;49285;49.002;8.390;2023-09-19T07:38:46;18.80;99.90
1880;DHT22;49285;49.002;8.390;2023-09-19T07:41:13;18.80;99.90
1880;DHT22;49285;49.002;8.390;2023-09-19T07:43:39;18.90;99.90
1880;DHT22;49285;49.002;8.390;2023-09-19T07:46:08;19.00;99.90
1880;DHT22;49285;49.002;8.390;2023-09-19T07:48:37;18.90;99.90
1880;DHT22;49285;49.002;8.390;2023-09-19T07:51:04;19.00;99.90
1880;DHT22;49285;49.002;8.390;2023-09-19T07:53:31;19.10;99.90
1880;DHT22;49285;49.002;8.390;2023-09-19T07:56:07;19.20;99.90
1880;DHT22;49285;49.002;8.390;2023-09-19T07:58:33;19.20;99.90
1880;DHT22;49285;49.002;8.390;2023-09-19T08:01:04;19.20;99.90
1880;DHT22;49285;49.002;8.390;2023-09-19T08:03:30;19.10;99.90
1880;DHT22;49285;49.002;8.390;2023-09-19T08:06:02;19.10;99.90
1880;DHT22;49285;49.002;8.390;2023-09-19T08:08:28;19.20;99.90
1880;DHT22;49285;49.002;8.390;2023-09-19T08:10:55;19.10;99.90
1880;DHT22;49285;49.002;8.390;2023-09-19T08:13:22;19.20;99.90
1880;DHT22;49285;49.002;8.390;2023-09-19T08:15:48;19.30;99.90
1880;DHT22;49285;49.002;8.390;2023-09-19T08:18:15;19.30;99.90
1880;DHT22;49285;49.002;8.390;2023-09-19T08:20:41;19.30;99.90
1880;DHT22;49285;49.002;8.390;2023-09-19T08:23:11;19.20;99.90
1880;DHT22;49285;49.002;8.390;2023-09-19T08:25:37;19.30;99.90
1880;DHT22;49285;49.002;8.390;2023-09-19T08:28:04;19.40;99.90
1880;DHT22;49285;49.002;8.390;2023-09-19T08:30:33;19.50;99.90
1880;DHT22;49285;49.002;8.390;2023-09-19T08:33:00;19.50;99.90
1880;DHT22;49285;49.002;8.390;2023-09-19T08:35:29;19.50;99.90
1880;DHT22;49285;49.002;8.390;2023-09-19T08:37:55;19.50;99.90
1880;DHT22;49285;49.002;8.390;2023-09-19T08:40:22;19.50;99.90
1880;DHT22;49285;49.002;8.390;2023-09-19T08:42:49;19.50;99.90
1880;DHT22;49285;49.002;8.390;2023-09-19T08:45:19;19.50;99.90
1880;DHT22;49285;49.002;8.390;2023-09-19T08:48:00;19.60;99.90
1880;DHT22;49285;49.002;8.390;2023-09-19T08:50:29;19.60;99.90
1880;DHT22;49285;49.002;8.390;2023-09-19T08:52:56;19.80;99.90
1880;DHT22;49285;49.002;8.390;2023-09-19T08:55:29;19.80;99.90
1880;DHT22;49285;49.002;8.390;2023-09-19T08:58:03;19.80;99.90
1880;DHT22;49285;49.002;8.390;2023-09-19T09:00:32;19.90;99.90
1880;DHT22;49285;49.002;8.390;2023-09-19T09:03:01;19.90;99.90
1880;DHT22;49285;49.002;8.390;2023-09-19T09:05:28;19.90;99.90
1880;DHT22;49285;49.002;8.390;2023-09-19T09:07:55;19.90;99.90
1880;DHT22;49285;49.002;8.390;2023-09-19T09:10:22;19.90;99.90
1880;DHT22;49285;49.002;8.390;2023-09-19T09:12:52;19.90;99.90
1880;DHT22;49285;49.002;8.390;2023-09-19T09:15:21;20.00;99.90
1880;DHT22;49285;49.002;8.390;2023-09-19T09:17:51;20.10;99.90
1880;DHT22;49285;49.002;8.390;2023-09-19T09:20:19;20.20;99.90
1880;DHT22;49285;49.002;8.390;2023-09-19T09:22:55;20.10;99.90
1880;DHT22;49285;49.002;8.390;2023-09-19T09:25:47;20.20;99.90
1880;DHT22;49285;49.002;8.390;2023-09-19T09:28:19;20.20;99.90
1880;DHT22;49285;49.002;8.390;2023-09-19T09:30:45;20.30;99.90
1880;DHT22;49285;49.002;8.390;2023-09-19T09:33:13;20.40;99.90
1880;DHT22;49285;49.002;8.390;2023-09-19T09:35:52;20.40;99.90
1880;DHT22;49285;49.002;8.390;2023-09-19T09:41:09;20.30;99.90
1880;DHT22;49285;49.002;8.390;2023-09-19T09:43:39;20.30;99.90
1880;DHT22;49285;49.002;8.390;2023-09-19T09:46:19;20.40;99.90
1880;DHT22;49285;49.002;8.390;2023-09-19T09:49:05;20.30;99.90
1880;DHT22;49285;49.002;8.390;2023-09-19T09:52:02;20.40;99.90
1880;DHT22;49285;49.002;8.390;2023-09-19T09:54:59;20.60;99.90
1880;DHT22;49285;49.002;8.390;2023-09-19T09:57:34;20.60;99.90
1880;DHT22;49285;49.002;8.390;2023-09-19T10:00:00;20.60;99.90
1880;DHT22;49285;49.002;8.390;2023-09-19T10:02:38;20.60;99.90
1880;DHT22;49285;49.002;8.390;2023-09-19T10:05:18;20.60;99.90
1880;DHT22;49285;49.002;8.390;2023-09-19T10:08:13;20.70;99.90
1880;DHT22;49285;49.002;8.390;2023-09-19T10:10:44;20.80;99.90
1880;DHT22;49285;49.002;8.390;2023-09-19T10:13:32;21.00;99.90
1880;DHT22;49285;49.002;8.390;2023-09-19T10:16:06;21.10;99.90
1880;DHT22;49285;49.002;8.390;2023-09-19T10:18:36;21.10;99.90
1880;DHT22;49285;49.002;8.390;2023-09-19T10:21:04;21.20;99.90
1880;DHT22;49285;49.002;8.390;2023-09-19T10:23:32;21.20;99.90
1880;DHT22;49285;49.002;8.390;2023-09-19T10:26:01;21.30;99.90
1880;DHT22;49285;49.002;8.390;2023-09-19T10:28:28;21.50;99.90
1880;DHT22;49285;49.002;8.390;2023-09-19T10:30:56;21.30;99.90
1880;DHT22;49285;49.002;8.390;2023-09-19T10:33:24;21.40;99.90
1880;DHT22;49285;49.002;8.390;2023-09-19T10:35:57;21.40;99.90
1880;DHT22;49285;49.002;8.390;2023-09-19T10:38:26;21.40;99.90
1880;DHT22;49285;49.002;8.390;2023-09-19T10:40:55;21.50;99.90
1880;DHT22;49285;49.002;8.390;2023-09-19T10:43:29;21.60;99.90
1880;DHT22;49285;49.002;8.390;2023-09-19T10:46:00;21.60;99.90
1880;DHT22;49285;49.002;8.390;2023-09-19T10:48:26;21.60;99.90
1880;DHT22;49285;49.002;8.390;2023-09-19T10:51:10;21.80;99.90
1880;DHT22;49285;49.002;8.390;2023-09-19T10:56:44;21.70;99.90
1880;DHT22;49285;49.002;8.390;2023-09-19T10:59:16;21.80;99.90
1880;DHT22;49285;49.002;8.390;2023-09-19T11:07:11;21.90;99.90
1880;DHT22;49285;49.002;8.390;2023-09-19T11:26:48;22.30;99.90
1880;DHT22;49285;49.002;8.390;2023-09-19T11:29:30;22.20;99.90
1880;DHT22;49285;49.002;8.390;2023-09-19T11:31:57;22.00;99.90
1880;DHT22;49285;49.002;8.390;2023-09-19T11:48:18;22.60;99.90
1880;DHT22;49285;49.002;8.390;2023-09-19T11:50:45;22.80;99.90
1880;DHT22;49285;49.002;8.390;2023-09-19T11:53:14;22.90;99.90
1880;DHT22;49285;49.002;8.390;2023-09-19T11:55:41;22.60;99.90
1880;DHT22;49285;49.002;8.390;2023-09-19T11:58:17;22.60;99.90
1880;DHT22;49285;49.002;8.390;2023-09-19T12:00:45;23.00;99.90
1880;DHT22;49285;49.002;8.390;2023-09-19T12:03:12;23.40;99.90
1880;DHT22;49285;49.002;8.390;2023-09-19T12:05:39;23.50;99.90
1880;DHT22;49285;49.002;8.390;2023-09-19T12:08:07;23.90;99.90
1880;DHT22;49285;49.002;8.390;2023-09-19T12:10:48;24.40;99.90
1880;DHT22;49285;49.002;8.390;2023-09-19T12:13:18;25.00;99.90
1880;DHT22;49285;49.002;8.390;2023-09-19T12:15:44;25.30;99.90
1880;DHT22;49285;49.002;8.390;2023-09-19T12:18:31;25.60;99.90
1880;DHT22;49285;49.002;8.390;2023-09-19T12:20:59;26.10;99.90
1880;DHT22;49285;49.002;8.390;2023-09-19T12:23:25;26.40;99.90
1880;DHT22;49285;49.002;8.390;2023-09-19T12:25:52;26.70;98.80
1880;DHT22;49285;49.002;8.390;2023-09-19T12:28:19;27.00;97.90
1880;DHT22;49285;49.002;8.390;2023-09-19T12:30:47;27.20;96.20
1880;DHT22;49285;49.002;8.390;2023-09-19T12:33:18;27.20;95.00
1880;DHT22;49285;49.002;8.390;2023-09-19T12:35:50;27.40;94.80
1880;DHT22;49285;49.002;8.390;2023-09-19T12:38:28;27.20;93.30
1880;DHT22;49285;49.002;8.390;2023-09-19T12:40:56;27.00;94.20
1880;DHT22;49285;49.002;8.390;2023-09-19T12:43:22;27.00;93.80
1880;DHT22;49285;49.002;8.390;2023-09-19T12:45:48;27.20;93.50
1880;DHT22;49285;49.002;8.390;2023-09-19T12:48:25;27.50;93.00
1880;DHT22;49285;49.002;8.390;2023-09-19T12:51:10;27.20;92.60
1880;DHT22;49285;49.002;8.390;2023-09-19T12:53:40;27.20;92.10
1880;DHT22;49285;49.002;8.390;2023-09-19T12:56:10;27.30;91.70
1880;DHT22;49285;49.002;8.390;2023-09-19T12:58:55;27.00;91.40
1880;DHT22;49285;49.002;8.390;2023-09-19T13:01:21;26.50;91.50
1880;DHT22;49285;49.002;8.390;2023-09-19T13:04:11;26.40;91.90
1880;DHT22;49285;49.002;8.390;2023-09-19T13:06:52;26.40;91.70
1880;DHT22;49285;49.002;8.390;2023-09-19T13:09:22;26.30;92.50
1880;DHT22;49285;49.002;8.390;2023-09-19T13:11:53;26.20;92.30
1880;DHT22;49285;49.002;8.390;2023-09-19T13:14:28;26.00;92.30
1880;DHT22;49285;49.002;8.390;2023-09-19T13:17:02;26.10;92.70
1880;DHT22;49285;49.002;8.390;2023-09-19T13:19:50;26.50;91.70
1880;DHT22;49285;49.002;8.390;2023-09-19T13:25:17;27.10;90.30
1880;DHT22;49285;49.002;8.390;2023-09-19T13:27:45;27.30;89.10
1880;DHT22;49285;49.002;8.390;2023-09-19T13:30:12;27.50;89.00
1880;DHT22;49285;49.002;8.390;2023-09-19T13:32:38;27.70;87.10
1880;DHT22;49285;49.002;8.390;2023-09-19T13:35:06;28.00;87.60
1880;DHT22;49285;49.002;8.390;2023-09-19T13:37:34;28.30;85.20
1880;DHT22;49285;49.002;8.390;2023-09-19T13:40:05;28.40;85.10
1880;DHT22;49285;49.002;8.390;2023-09-19T13:42:31;28.40;84.00
1880;DHT22;49285;49.002;8.390;2023-09-19T13:44:57;28.60;83.80
1880;DHT22;49285;49.002;8.390;2023-09-19T13:47:26;28.80;83.40
1880;DHT22;49285;49.002;8.390;2023-09-19T13:49:52;28.70;79.60
1880;DHT22;49285;49.002;8.390;2023-09-19T13:52:19;28.60;79.50
1880;DHT22;49285;49.002;8.390;2023-09-19T13:54:45;28.40;80.20
1880;DHT22;49285;49.002;8.390;2023-09-19T13:57:10;28.10;80.80
1880;DHT22;49285;49.002;8.390;2023-09-19T13:59:36;27.60;82.10
1880;DHT22;49285;49.002;8.390;2023-09-19T14:02:01;27.40;83.90
1880;DHT22;49285;49.002;8.390;2023-09-19T14:04:31;27.60;82.20
1880;DHT22;49285;49.002;8.390;2023-09-19T14:06:57;27.20;83.00
1880;DHT22;49285;49.002;8.390;2023-09-19T14:09:23;27.40;82.00
1880;DHT22;49285;49.002;8.390;2023-09-19T14:11:50;27.30;82.20
1880;DHT22;49285;49.002;8.390;2023-09-19T14:14:18;27.40;84.00
1880;DHT22;49285;49.002;8.390;2023-09-19T14:16:44;27.40;80.80
1880;DHT22;49285;49.002;8.390;2023-09-19T14:19:09;27.40;81.00
1880;DHT22;49285;49.002;8.390;2023-09-19T14:21:35;27.60;81.60
1880;DHT22;49285;49.002;8.390;2023-09-19T14:24:02;27.60;80.70
1880;DHT22;49285;49.002;8.390;2023-09-19T14:26:28;27.40;80.70
1880;DHT22;49285;49.002;8.390;2023-09-19T14:28:54;27.20;81.40
1880;DHT22;49285;49.002;8.390;2023-09-19T14:31:20;27.30;83.00
1880;DHT22;49285;49.002;8.390;2023-09-19T14:33:52;27.20;84.50
1880;DHT22;49285;49.002;8.390;2023-09-19T14:36:18;27.40;83.60
1880;DHT22;49285;49.002;8.390;2023-09-19T14:38:44;27.30;82.90
1880;DHT22;49285;49.002;8.390;2023-09-19T14:41:10;27.00;84.50
1880;DHT22;49285;49.002;8.390;2023-09-19T14:43:35;26.90;84.50
1880;DHT22;49285;49.002;8.390;2023-09-19T14:46:05;27.10;85.00
1880;DHT22;49285;49.002;8.390;2023-09-19T14:48:33;26.90;82.60
1880;DHT22;49285;49.002;8.390;2023-09-19T14:51:03;26.80;84.60
1880;DHT22;49285;49.002;8.390;2023-09-19T14:53:29;26.80;84.70
1880;DHT22;49285;49.002;8.390;2023-09-19T14:55:55;26.70;85.20
1880;DHT22;49285;49.002;8.390;2023-09-19T14:58:21;26.60;85.60
1880;DHT22;49285;49.002;8.390;2023-09-19T15:00:47;26.40;85.80
1880;DHT22;49285;49.002;8.390;2023-09-19T15:03:13;26.20;86.90
1880;DHT22;49285;49.002;8.390;2023-09-19T15:05:42;26.10;86.60
1880;DHT22;49285;49.002;8.390;2023-09-19T15:08:08;25.80;87.60
1880;DHT22;49285;49.002;8.390;2023-09-19T15:10:34;25.80;88.70
1880;DHT22;49285;49.002;8.390;2023-09-19T15:13:00;25.80;87.90
1880;DHT22;49285;49.002;8.390;2023-09-19T15:15:26;25.60;88.80
1880;DHT22;49285;49.002;8.390;2023-09-19T15:17:51;25.40;89.20
1880;DHT22;49285;49.002;8.390;2023-09-19T15:20:17;25.40;90.10
1880;DHT22;49285;49.002;8.390;2023-09-19T15:22:43;25.50;90.10
1880;DHT22;49285;49.002;8.390;2023-09-19T15:25:09;25.60;90.20
1880;DHT22;49285;49.002;8.390;2023-09-19T15:27:35;25.60;90.50
1880;DHT22;49285;49.002;8.390;2023-09-19T15:30:02;25.70;90.70
1880;DHT22;49285;49.002;8.390;2023-09-19T15:32:28;25.60;91.10
1880;DHT22;49285;49.002;8.390;2023-09-19T15:34:54;25.70;91.20
1880;DHT22;49285;49.002;8.390;2023-09-19T15:37:20;25.60;91.40
1880;DHT22;49285;49.002;8.390;2023-09-19T15:39:46;25.50;91.60
1880;DHT22;49285;49.002;8.390;2023-09-19T15:42:12;25.50;91.90
1880;DHT22;49285;49.002;8.390;2023-09-19T15:44:38;25.30;91.70
1880;DHT22;49285;49.002;8.390;2023-09-19T15:47:04;25.10;92.50
1880;DHT22;49285;49.002;8.390;2023-09-19T15:49:30;25.00;92.90
1880;DHT22;49285;49.002;8.390;2023-09-19T15:51:56;24.90;92.90
1880;DHT22;49285;49.002;8.390;2023-09-19T15:54:21;24.90;93.00
1880;DHT22;49285;49.002;8.390;2023-09-19T15:56:47;24.90;93.10
1880;DHT22;49285;49.002;8.390;2023-09-19T15:59:14;24.90;93.20
1880;DHT22;49285;49.002;8.390;2023-09-19T16:01:44;24.90;93.60
1880;DHT22;49285;49.002;8.390;2023-09-19T16:04:09;25.00;93.80
1880;DHT22;49285;49.002;8.390;2023-09-19T16:06:36;25.00;94.00
1880;DHT22;49285;49.002;8.390;2023-09-19T16:09:02;25.00;93.80
1880;DHT22;49285;49.002;8.390;2023-09-19T16:11:34;24.90;93.70
1880;DHT22;49285;49.002;8.390;2023-09-19T16:14:03;24.70;94.00
1880;DHT22;49285;49.002;8.390;2023-09-19T16:16:30;24.80;94.20
1880;DHT22;49285;49.002;8.390;2023-09-19T16:18:58;24.90;94.40
1880;DHT22;49285;49.002;8.390;2023-09-19T16:21:27;24.90;94.30
1880;DHT22;49285;49.002;8.390;2023-09-19T16:23:54;24.90;94.70
1880;DHT22;49285;49.002;8.390;2023-09-19T16:26:20;24.80;94.80
1880;DHT22;49285;49.002;8.390;2023-09-19T16:28:49;24.90;94.90
1880;DHT22;49285;49.002;8.390;2023-09-19T16:31:15;24.80;95.10
1880;DHT22;49285;49.002;8.390;2023-09-19T16:33:43;24.70;95.20
1880;DHT22;49285;49.002;8.390;2023-09-19T16:36:17;24.70;95.10
1880;DHT22;49285;49.002;8.390;2023-09-19T16:38:44;24.70;95.40
1880;DHT22;49285;49.002;8.390;2023-09-19T16:41:11;24.80;95.20
1880;DHT22;49285;49.002;8.390;2023-09-19T16:43:40;24.90;95.50
1880;DHT22;49285;49.002;8.390;2023-09-19T16:46:07;24.90;95.10
1880;DHT22;49285;49.002;8.390;2023-09-19T16:48:41;24.90;95.30
1880;DHT22;49285;49.002;8.390;2023-09-19T16:51:10;24.90;94.80
1880;DHT22;49285;49.002;8.390;2023-09-19T16:53:39;24.90;94.60
1880;DHT22;49285;49.002;8.390;2023-09-19T16:56:09;24.90;94.80
1880;DHT22;49285;49.002;8.390;2023-09-19T16:58:36;24.80;94.90
1880;DHT22;49285;49.002;8.390;2023-09-19T17:01:02;24.80;95.10